sensor_id;sensor_type;location;lat;lon;timestamp;temperature;humidity
21019;DHT22;10667;51.056;3.732;2023-06-14T00:01:24;23.80;99.90
21019;DHT22;10667;51.056;3.732;2023-06-14T00:03:50;23.80;99.90
21019;DHT22;10667;51.056;3.732;2023-06-14T00:06:16;23.90;99.90
21019;DHT22;10667;51.056;3.732;2023-06-14T00:08:42;23.90;99.90
21019;DHT22;10667;51.056;3.732;2023-06-14T00:11:08;23.70;99.90
21019;DHT22;10667;51.056;3.732;2023-06-14T00:13:34;23.60;99.90
21019;DHT22;10667;51.056;3.732;2023-06-14T00:16:00;23.70;99.90
21019;DHT22;10667;51.056;3.732;2023-06-14T00:18:25;23.60;99.90
21019;DHT22;10667;51.056;3.732;2023-06-14T00:20:55;23.60;99.90
21019;DHT22;10667;51.056;3.732;2023-06-14T00:23:21;23.50;99.90
21019;DHT22;10667;51.056;3.732;2023-06-14T00:25:46;23.50;99.90
21019;DHT22;10667;51.056;3.732;2023-06-14T00:28:12;23.50;99.90
21019;DHT22;10667;51.056;3.732;2023-06-14T00:30:38;23.40;99.90
21019;DHT22;10667;51.056;3.732;2023-06-14T00:33:04;23.50;99.90
21019;DHT22;10667;51.056;3.732;2023-06-14T00:35:31;23.40;99.90
21019;DHT22;10667;51.056;3.732;2023-06-14T00:37:57;23.40;99.90
21019;DHT22;10667;51.056;3.732;2023-06-14T00:40:23;23.50;99.90
21019;DHT22;10667;51.056;3.732;2023-06-14T00:42:49;23.40;99.90
21019;DHT22;10667;51.056;3.732;2023-06-14T00:45:15;23.50;99.90
21019;DHT22;10667;51.056;3.732;2023-06-14T00:47:41;23.40;99.90
21019;DHT22;10667;51.056;3.732;2023-06-14T00:50:08;23.40;99.90
21019;DHT22;10667;51.056;3.732;2023-06-14T00:52:34;23.40;99.90
21019;DHT22;10667;51.056;3.732;2023-06-14T00:55:00;23.40;99.90
21019;DHT22;10667;51.056;3.732;2023-06-14T00:57:26;23.30;99.90
21019;DHT22;10667;51.056;3.732;2023-06-14T00:59:52;23.30;99.90
21019;DHT22;10667;51.056;3.732;2023-06-14T01:02:18;23.30;99.90
21019;DHT22;10667;51.056;3.732;2023-06-14T01:04:46;23.30;99.90
21019;DHT22;10667;51.056;3.732;2023-06-14T01:13:12;23.30;99.90
21019;DHT22;10667;51.056;3.732;2023-06-14T01:15:43;23.20;99.90
21019;DHT22;10667;51.056;3.732;2023-06-14T01:18:09;23.10;99.90
21019;DHT22;10667;51.056;3.732;2023-06-14T01:20:42;23.10;99.90
21019;DHT22;10667;51.056;3.732;2023-06-14T01:23:10;23.00;99.90
21019;DHT22;10667;51.056;3.732;2023-06-14T01:25:39;23.00;99.90
21019;DHT22;10667;51.056;3.732;2023-06-14T01:28:06;23.00;99.90
21019;DHT22;10667;51.056;3.732;2023-06-14T01:30:41;23.00;99.90
21019;DHT22;10667;51.056;3.732;2023-06-14T01:33:15;23.00;99.90
21019;DHT22;10667;51.056;3.732;2023-06-14T01:35:47;22.90;99.90
21019;DHT22;10667;51.056;3.732;2023-06-14T01:38:13;22.90;99.90
21019;DHT22;10667;51.056;3.732;2023-06-14T01:40:41;22.80;99.90
21019;DHT22;10667;51.056;3.732;2023-06-14T01:43:08;22.80;99.90
21019;DHT22;10667;51.056;3.732;2023-06-14T01:45:36;22.80;99.90
21019;DHT22;10667;51.056;3.732;2023-06-14T01:48:02;22.80;99.90
21019;DHT22;10667;51.056;3.732;2023-06-14T01:50:29;22.80;99.90
21019;DHT22;10667;51.056;3.732;2023-06-14T01:52:55;22.80;99.90
21019;DHT22;10667;51.056;3.732;2023-06-14T01:55:21;22.80;99.90
21019;DHT22;10667;51.056;3.732;2023-06-14T01:57:47;22.70;99.90
21019;DHT22;10667;51.056;3.732;2023-06-14T02:00:14;22.70;99.90
21019;DHT22;10667;51.056;3.732;2023-06-14T02:02:40;22.70;99.90
21019;DHT22;10667;51.056;3.732;2023-06-14T02:05:06;22.70;99.90
21019;DHT22;10667;51.056;3.732;2023-06-14T02:07:33;22.60;99.90
21019;DHT22;10667;51.056;3.732;2023-06-14T02:09:59;22.60;99.90
21019;DHT22;10667;51.056;3.732;2023-06-14T02:12:25;22.50;99.90
21019;DHT22;10667;51.056;3.732;2023-06-14T02:14:51;22.50;99.90
21019;DHT22;10667;51.056;3.732;2023-06-14T02:17:17;22.50;99.90
21019;DHT22;10667;51.056;3.732;2023-06-14T02:19:43;22.40;99.90
21019;DHT22;10667;51.056;3.732;2023-06-14T02:22:09;22.40;99.90
21019;DHT22;10667;51.056;3.732;2023-06-14T02:24:35;22.40;99.90
21019;DHT22;10667;51.056;3.732;2023-06-14T02:27:01;22.40;99.90
21019;DHT22;10667;51.056;3.732;2023-06-14T02:29:27;22.40;99.90
21019;DHT22;10667;51.056;3.732;2023-06-14T02:31:53;22.30;99.90
21019;DHT22;10667;51.056;3.732;2023-06-14T02:34:18;22.30;99.90
21019;DHT22;10667;51.056;3.732;2023-06-14T02:36:45;22.30;99.90
21019;DHT22;10667;51.056;3.732;2023-06-14T02:39:13;22.30;99.90
21019;DHT22;10667;51.056;3.732;2023-06-14T02:41:38;22.20;99.90
21019;DHT22;10667;51.056;3.732;2023-06-14T02:44:04;22.20;99.90
21019;DHT22;10667;51.056;3.732;2023-06-14T02:46:30;22.10;99.90
21019;DHT22;10667;51.056;3.732;2023-06-14T02:48:56;22.10;99.90
21019;DHT22;10667;51.056;3.732;2023-06-14T02:51:22;22.10;99.90
21019;DHT22;10667;51.056;3.732;2023-06-14T02:53:47;22.10;99.90
21019;DHT22;10667;51.056;3.732;2023-06-14T02:56:13;22.10;99.90
21019;DHT22;10667;51.056;3.732;2023-06-14T02:58:39;22.10;99.90
21019;DHT22;10667;51.056;3.732;2023-06-14T03:01:06;22.10;99.90
21019;DHT22;10667;51.056;3.732;2023-06-14T03:03:33;22.10;99.90
21019;DHT22;10667;51.056;3.732;2023-06-14T03:05:59;22.00;99.90
21019;DHT22;10667;51.056;3.732;2023-06-14T03:08:30;22.00;99.90
21019;DHT22;10667;51.056;3.732;2023-06-14T03:10:57;22.00;99.90
21019;DHT22;10667;51.056;3.732;2023-06-14T03:13:23;21.90;99.90
21019;DHT22;10667;51.056;3.732;2023-06-14T03:15:49;22.00;99.90
21019;DHT22;10667;51.056;3.732;2023-06-14T03:18:17;21.90;99.90
21019;DHT22;10667;51.056;3.732;2023-06-14T03:20:44;21.90;99.90
21019;DHT22;10667;51.056;3.732;2023-06-14T03:23:11;21.90;99.90
21019;DHT22;10667;51.056;3.732;2023-06-14T03:25:38;21.90;99.90
21019;DHT22;10667;51.056;3.732;2023-06-14T03:28:06;21.80;99.90
21019;DHT22;10667;51.056;3.732;2023-06-14T03:30:31;21.80;99.90
21019;DHT22;10667;51.056;3.732;2023-06-14T03:32:57;21.80;99.90
21019;DHT22;10667;51.056;3.732;2023-06-14T03:35:26;21.80;99.90
21019;DHT22;10667;51.056;3.732;2023-06-14T03:37:52;21.70;99.90
21019;DHT22;10667;51.056;3.732;2023-06-14T03:40:18;21.80;99.70
21019;DHT22;10667;51.056;3.732;2023-06-14T03:42:45;21.80;99.90
21019;DHT22;10667;51.056;3.732;2023-06-14T03:45:11;21.70;99.90
21019;DHT22;10667;51.056;3.732;2023-06-14T03:47:36;21.70;99.80
21019;DHT22;10667;51.056;3.732;2023-06-14T03:50:03;21.80;99.60
21019;DHT22;10667;51.056;3.732;2023-06-14T03:52:29;21.70;99.90
21019;DHT22;10667;51.056;3.732;2023-06-14T03:54:55;21.70;99.30
21019;DHT22;10667;51.056;3.732;2023-06-14T03:57:21;21.70;99.10
21019;DHT22;10667;51.056;3.732;2023-06-14T03:59:47;21.70;99.90
21019;DHT22;10667;51.056;3.732;2023-06-14T04:02:13;21.70;99.80
21019;DHT22;10667;51.056;3.732;2023-06-14T04:04:42;21.70;99.50
21019;DHT22;10667;51.056;3.732;2023-06-14T04:07:14;21.70;99.00
21019;DHT22;10667;51.056;3.732;2023-06-14T04:09:40;21.70;98.50
21019;DHT22;10667;51.056;3.732;2023-06-14T04:12:06;21.60;98.80
21019;DHT22;10667;51.056;3.732;2023-06-14T04:14:34;21.60;98.80
21019;DHT22;10667;51.056;3.732;2023-06-14T04:17:00;21.60;98.10
21019;DHT22;10667;51.056;3.732;2023-06-14T04:19:26;21.60;97.80
21019;DHT22;10667;51.056;3.732;2023-06-14T04:21:52;21.70;97.90
21019;DHT22;10667;51.056;3.732;2023-06-14T04:24:17;21.70;98.10
21019;DHT22;10667;51.056;3.732;2023-06-14T04:26:44;21.60;97.30
21019;DHT22;10667;51.056;3.732;2023-06-14T04:29:17;21.70;97.20
21019;DHT22;10667;51.056;3.732;2023-06-14T04:31:45;21.70;98.80
21019;DHT22;10667;51.056;3.732;2023-06-14T04:34:12;21.60;97.60
21019;DHT22;10667;51.056;3.732;2023-06-14T04:36:47;21.60;97.50
21019;DHT22;10667;51.056;3.732;2023-06-14T04:39:19;21.70;97.00
21019;DHT22;10667;51.056;3.732;2023-06-14T04:41:45;21.60;96.90
21019;DHT22;10667;51.056;3.732;2023-06-14T04:44:12;21.70;96.40
21019;DHT22;10667;51.056;3.732;2023-06-14T04:46:38;21.70;96.10
21019;DHT22;10667;51.056;3.732;2023-06-14T04:49:20;21.70;96.60
21019;DHT22;10667;51.056;3.732;2023-06-14T04:51:46;21.60;97.00
21019;DHT22;10667;51.056;3.732;2023-06-14T04:54:12;21.70;96.30
21019;DHT22;10667;51.056;3.732;2023-06-14T04:56:42;21.70;95.90
21019;DHT22;10667;51.056;3.732;2023-06-14T04:59:08;21.60;95.70
21019;DHT22;10667;51.056;3.732;2023-06-14T05:01:34;21.70;95.10
21019;DHT22;10667;51.056;3.732;2023-06-14T05:04:00;21.60;95.50
21019;DHT22;10667;51.056;3.732;2023-06-14T05:06:25;21.60;96.00
21019;DHT22;10667;51.056;3.732;2023-06-14T05:08:54;21.60;96.70
21019;DHT22;10667;51.056;3.732;2023-06-14T05:11:20;21.60;96.30
21019;DHT22;10667;51.056;3.732;2023-06-14T05:13:46;21.60;95.70
21019;DHT22;10667;51.056;3.732;2023-06-14T05:16:12;21.70;95.70
21019;DHT22;10667;51.056;3.732;2023-06-14T05:18:38;21.70;95.20
21019;DHT22;10667;51.056;3.732;2023-06-14T05:21:05;21.70;95.10
21019;DHT22;10667;51.056;3.732;2023-06-14T05:23:31;21.70;94.50
21019;DHT22;10667;51.056;3.732;2023-06-14T05:25:56;21.70;94.30
21019;DHT22;10667;51.056;3.732;2023-06-14T05:28:23;21.70;94.70
21019;DHT22;10667;51.056;3.732;2023-06-14T05:30:49;21.70;94.90
21019;DHT22;10667;51.056;3.732;2023-06-14T05:33:14;21.70;96.00
21019;DHT22;10667;51.056;3.732;2023-06-14T05:35:40;21.70;94.60
21019;DHT22;10667;51.056;3.732;2023-06-14T05:38:05;21.70;94.40
21019;DHT22;10667;51.056;3.732;2023-06-14T05:40:33;21.70;94.30
21019;DHT22;10667;51.056;3.732;2023-06-14T05:42:59;21.70;93.80
21019;DHT22;10667;51.056;3.732;2023-06-14T05:45:24;21.80;93.70
21019;DHT22;10667;51.056;3.732;2023-06-14T05:47:50;21.80;95.10
21019;DHT22;10667;51.056;3.732;2023-06-14T05:50:16;21.80;93.60
21019;DHT22;10667;51.056;3.732;2023-06-14T05:52:42;21.80;95.00
21019;DHT22;10667;51.056;3.732;2023-06-14T05:55:08;21.90;95.90
21019;DHT22;10667;51.056;3.732;2023-06-14T05:57:34;21.90;94.00
21019;DHT22;10667;51.056;3.732;2023-06-14T05:59:59;21.90;94.10
21019;DHT22;10667;51.056;3.732;2023-06-14T06:02:25;21.90;94.00
21019;DHT22;10667;51.056;3.732;2023-06-14T06:04:51;21.90;94.20
21019;DHT22;10667;51.056;3.732;2023-06-14T06:07:16;21.90;93.90
21019;DHT22;10667;51.056;3.732;2023-06-14T06:09:42;21.90;94.10
21019;DHT22;10667;51.056;3.732;2023-06-14T06:12:08;21.90;94.50
21019;DHT22;10667;51.056;3.732;2023-06-14T06:14:33;21.90;94.50
21019;DHT22;10667;51.056;3.732;2023-06-14T06:16:59;22.00;93.70
21019;DHT22;10667;51.056;3.732;2023-06-14T06:19:25;21.90;93.70
21019;DHT22;10667;51.056;3.732;2023-06-14T06:21:51;22.00;93.50
21019;DHT22;10667;51.056;3.732;2023-06-14T06:24:16;22.00;94.10
21019;DHT22;10667;51.056;3.732;2023-06-14T06:26:42;22.10;94.40
21019;DHT22;10667;51.056;3.732;2023-06-14T06:29:08;22.10;95.10
21019;DHT22;10667;51.056;3.732;2023-06-14T06:31:33;22.20;95.00
21019;DHT22;10667;51.056;3.732;2023-06-14T06:33:59;22.30;94.10
21019;DHT22;10667;51.056;3.732;2023-06-14T06:36:25;22.30;94.10
21019;DHT22;10667;51.056;3.732;2023-06-14T06:38:51;22.40;93.70
21019;DHT22;10667;51.056;3.732;2023-06-14T06:41:16;22.50;94.60
21019;DHT22;10667;51.056;3.732;2023-06-14T06:43:42;22.60;94.10
21019;DHT22;10667;51.056;3.732;2023-06-14T06:46:08;22.70;93.20
21019;DHT22;10667;51.056;3.732;2023-06-14T06:48:33;22.70;93.20
21019;DHT22;10667;51.056;3.732;2023-06-14T06:50:59;22.80;92.80
21019;DHT22;10667;51.056;3.732;2023-06-14T06:53:25;22.80;93.60
21019;DHT22;10667;51.056;3.732;2023-06-14T06:55:51;22.90;93.60
21019;DHT22;10667;51.056;3.732;2023-06-14T06:58:16;23.00;94.30
21019;DHT22;10667;51.056;3.732;2023-06-14T07:00:42;23.10;94.30
21019;DHT22;10667;51.056;3.732;2023-06-14T07:03:08;23.20;95.40
21019;DHT22;10667;51.056;3.732;2023-06-14T07:05:34;23.30;95.60
21019;DHT22;10667;51.056;3.732;2023-06-14T07:08:00;23.30;93.90
21019;DHT22;10667;51.056;3.732;2023-06-14T07:10:25;23.40;93.40
21019;DHT22;10667;51.056;3.732;2023-06-14T07:12:52;23.50;93.20
21019;DHT22;10667;51.056;3.732;2023-06-14T07:15:17;23.60;92.90
21019;DHT22;10667;51.056;3.732;2023-06-14T07:17:43;23.70;92.50
21019;DHT22;10667;51.056;3.732;2023-06-14T07:20:09;23.70;91.40
21019;DHT22;10667;51.056;3.732;2023-06-14T07:22:39;23.80;91.40
21019;DHT22;10667;51.056;3.732;2023-06-14T07:25:10;24.00;91.10
21019;DHT22;10667;51.056;3.732;2023-06-14T07:27:37;24.10;91.40
21019;DHT22;10667;51.056;3.732;2023-06-14T07:30:03;24.20;90.30
21019;DHT22;10667;51.056;3.732;2023-06-14T07:32:29;24.30;90.30
21019;DHT22;10667;51.056;3.732;2023-06-14T07:34:55;24.40;89.80
21019;DHT22;10667;51.056;3.732;2023-06-14T07:37:21;24.50;89.60
21019;DHT22;10667;51.056;3.732;2023-06-14T07:39:46;24.60;88.80
21019;DHT22;10667;51.056;3.732;2023-06-14T07:42:12;24.70;87.30
21019;DHT22;10667;51.056;3.732;2023-06-14T07:44:37;24.80;86.30
21019;DHT22;10667;51.056;3.732;2023-06-14T07:47:03;25.00;85.60
21019;DHT22;10667;51.056;3.732;2023-06-14T07:49:29;25.10;85.40
21019;DHT22;10667;51.056;3.732;2023-06-14T07:51:55;25.20;84.40
21019;DHT22;10667;51.056;3.732;2023-06-14T07:54:20;25.20;83.70
21019;DHT22;10667;51.056;3.732;2023-06-14T07:56:50;25.40;83.40
21019;DHT22;10667;51.056;3.732;2023-06-14T07:59:16;25.50;83.90
21019;DHT22;10667;51.056;3.732;2023-06-14T08:01:42;25.60;82.70
21019;DHT22;10667;51.056;3.732;2023-06-14T08:04:13;25.80;81.80
21019;DHT22;10667;51.056;3.732;2023-06-14T08:06:38;25.80;79.50
21019;DHT22;10667;51.056;3.732;2023-06-14T08:09:04;25.90;79.00
21019;DHT22;10667;51.056;3.732;2023-06-14T08:11:31;26.10;78.40
21019;DHT22;10667;51.056;3.732;2023-06-14T08:13:56;26.20;78.20
21019;DHT22;10667;51.056;3.732;2023-06-14T08:16:22;26.30;77.80
21019;DHT22;10667;51.056;3.732;2023-06-14T08:18:49;26.30;78.20
21019;DHT22;10667;51.056;3.732;2023-06-14T08:21:15;26.50;78.20
21019;DHT22;10667;51.056;3.732;2023-06-14T08:23:41;26.70;78.90
21019;DHT22;10667;51.056;3.732;2023-06-14T08:26:09;26.70;77.10
21019;DHT22;10667;51.056;3.732;2023-06-14T08:28:34;26.90;76.70
21019;DHT22;10667;51.056;3.732;2023-06-14T08:31:00;27.00;75.50
21019;DHT22;10667;51.056;3.732;2023-06-14T08:33:27;27.00;76.20
21019;DHT22;10667;51.056;3.732;2023-06-14T08:35:52;27.10;75.10
21019;DHT22;10667;51.056;3.732;2023-06-14T08:38:18;27.10;74.10
21019;DHT22;10667;51.056;3.732;2023-06-14T08:40:46;27.20;73.00
21019;DHT22;10667;51.056;3.732;2023-06-14T08:43:13;27.20;73.10
21019;DHT22;10667;51.056;3.732;2023-06-14T08:45:39;27.40;73.20
21019;DHT22;10667;51.056;3.732;2023-06-14T08:48:08;27.40;70.50
21019;DHT22;10667;51.056;3.732;2023-06-14T08:50:36;27.50;71.10
21019;DHT22;10667;51.056;3.732;2023-06-14T08:53:05;27.30;71.50
21019;DHT22;10667;51.056;3.732;2023-06-14T08:55:35;27.50;71.90
21019;DHT22;10667;51.056;3.732;2023-06-14T08:58:04;27.60;71.70
21019;DHT22;10667;51.056;3.732;2023-06-14T09:00:30;27.60;70.90
21019;DHT22;10667;51.056;3.732;2023-06-14T09:02:58;27.60;69.60
21019;DHT22;10667;51.056;3.732;2023-06-14T09:05:27;27.70;69.10
21019;DHT22;10667;51.056;3.732;2023-06-14T09:07:54;27.80;67.60
21019;DHT22;10667;51.056;3.732;2023-06-14T09:10:27;28.00;64.40
21019;DHT22;10667;51.056;3.732;2023-06-14T09:12:56;28.10;63.10
21019;DHT22;10667;51.056;3.732;2023-06-14T09:15:22;28.30;61.00
21019;DHT22;10667;51.056;3.732;2023-06-14T09:17:50;28.40;61.80
21019;DHT22;10667;51.056;3.732;2023-06-14T09:20:16;28.50;60.60
21019;DHT22;10667;51.056;3.732;2023-06-14T09:22:45;28.70;59.60
21019;DHT22;10667;51.056;3.732;2023-06-14T09:25:11;28.80;59.80
21019;DHT22;10667;51.056;3.732;2023-06-14T09:27:40;28.90;59.20
21019;DHT22;10667;51.056;3.732;2023-06-14T09:30:09;29.10;58.40
21019;DHT22;10667;51.056;3.732;2023-06-14T09:32:38;29.20;56.90
21019;DHT22;10667;51.056;3.732;2023-06-14T09:35:07;29.50;56.30
21019;DHT22;10667;51.056;3.732;2023-06-14T09:37:33;29.40;55.90
21019;DHT22;10667;51.056;3.732;2023-06-14T09:39:59;29.70;56.10
21019;DHT22;10667;51.056;3.732;2023-06-14T09:42:28;29.80;56.40
21019;DHT22;10667;51.056;3.732;2023-06-14T09:44:56;29.60;56.60
21019;DHT22;10667;51.056;3.732;2023-06-14T09:47:23;29.70;55.70
21019;DHT22;10667;51.056;3.732;2023-06-14T09:49:50;29.90;56.00
21019;DHT22;10667;51.056;3.732;2023-06-14T09:52:21;30.00;54.90
21019;DHT22;10667;51.056;3.732;2023-06-14T09:54:48;30.00;53.10
21019;DHT22;10667;51.056;3.732;2023-06-14T09:57:21;30.10;52.50
21019;DHT22;10667;51.056;3.732;2023-06-14T09:59:47;30.30;52.60
21019;DHT22;10667;51.056;3.732;2023-06-14T10:02:27;30.20;51.50
21019;DHT22;10667;51.056;3.732;2023-06-14T10:05:12;30.10;51.50
21019;DHT22;10667;51.056;3.732;2023-06-14T10:07:52;30.30;51.60
21019;DHT22;10667;51.056;3.732;2023-06-14T10:10:19;30.50;50.50
21019;DHT22;10667;51.056;3.732;2023-06-14T10:12:45;30.30;48.80
21019;DHT22;10667;51.056;3.732;2023-06-14T10:15:18;30.60;47.60
21019;DHT22;10667;51.056;3.732;2023-06-14T10:17:56;30.80;47.40
21019;DHT22;10667;51.056;3.732;2023-06-14T10:20:30;31.00;47.80
21019;DHT22;10667;51.056;3.732;2023-06-14T10:23:11;31.30;46.90
21019;DHT22;10667;51.056;3.732;2023-06-14T10:25:38;31.50;45.60
21019;DHT22;10667;51.056;3.732;2023-06-14T10:28:14;31.50;45.40
21019;DHT22;10667;51.056;3.732;2023-06-14T10:33:29;31.90;46.70
21019;DHT22;10667;51.056;3.732;2023-06-14T10:36:30;32.10;46.60
21019;DHT22;10667;51.056;3.732;2023-06-14T10:39:03;32.20;45.70
21019;DHT22;10667;51.056;3.732;2023-06-14T10:41:29;32.10;45.80
21019;DHT22;10667;51.056;3.732;2023-06-14T10:46:53;32.00;43.90
21019;DHT22;10667;51.056;3.732;2023-06-14T10:49:19;32.20;43.70
21019;DHT22;10667;51.056;3.732;2023-06-14T10:51:49;32.40;44.60
21019;DHT22;10667;51.056;3.732;2023-06-14T10:54:20;32.60;43.40
21019;DHT22;10667;51.056;3.732;2023-06-14T10:56:52;32.80;42.10
21019;DHT22;10667;51.056;3.732;2023-06-14T10:59:19;32.90;41.30
21019;DHT22;10667;51.056;3.732;2023-06-14T11:04:47;33.10;42.40
21019;DHT22;10667;51.056;3.732;2023-06-14T11:07:31;33.40;42.70
21019;DHT22;10667;51.056;3.732;2023-06-14T11:12:48;33.20;42.30
21019;DHT22;10667;51.056;3.732;2023-06-14T11:15:15;33.30;41.70
21019;DHT22;10667;51.056;3.732;2023-06-14T11:17:51;33.50;41.20
21019;DHT22;10667;51.056;3.732;2023-06-14T11:20:25;33.70;40.90
21019;DHT22;10667;51.056;3.732;2023-06-14T11:22:52;33.90;39.90
21019;DHT22;10667;51.056;3.732;2023-06-14T11:25:18;34.00;39.90
21019;DHT22;10667;51.056;3.732;2023-06-14T11:27:44;34.00;39.70
21019;DHT22;10667;51.056;3.732;2023-06-14T11:30:10;34.00;39.40
21019;DHT22;10667;51.056;3.732;2023-06-14T11:32:37;34.30;37.50
21019;DHT22;10667;51.056;3.732;2023-06-14T11:35:04;34.60;38.00
21019;DHT22;10667;51.056;3.732;2023-06-14T11:37:33;34.80;36.30
21019;DHT22;10667;51.056;3.732;2023-06-14T11:40:02;35.10;36.90
21019;DHT22;10667;51.056;3.732;2023-06-14T11:42:34;35.20;35.60
21019;DHT22;10667;51.056;3.732;2023-06-14T11:45:00;35.40;35.40
21019;DHT22;10667;51.056;3.732;2023-06-14T11:47:34;35.50;35.00
21019;DHT22;10667;51.056;3.732;2023-06-14T11:50:01;35.80;34.40
21019;DHT22;10667;51.056;3.732;2023-06-14T11:52:27;36.10;35.00
21019;DHT22;10667;51.056;3.732;2023-06-14T11:54:53;36.00;34.90
21019;DHT22;10667;51.056;3.732;2023-06-14T11:57:19;36.50;35.40
21019;DHT22;10667;51.056;3.732;2023-06-14T11:59:46;36.70;35.10
21019;DHT22;10667;51.056;3.732;2023-06-14T12:02:19;36.50;33.40
21019;DHT22;10667;51.056;3.732;2023-06-14T12:04:48;36.60;34.20
21019;DHT22;10667;51.056;3.732;2023-06-14T12:07:15;36.90;33.90
21019;DHT22;10667;51.056;3.732;2023-06-14T12:12:28;37.50;32.90
21019;DHT22;10667;51.056;3.732;2023-06-14T12:14:57;37.60;31.60
21019;DHT22;10667;51.056;3.732;2023-06-14T12:17:23;37.80;30.70
21019;DHT22;10667;51.056;3.732;2023-06-14T12:19:49;37.90;30.90
21019;DHT22;10667;51.056;3.732;2023-06-14T12:22:16;38.10;32.20
21019;DHT22;10667;51.056;3.732;2023-06-14T12:24:45;38.20;31.40
21019;DHT22;10667;51.056;3.732;2023-06-14T12:27:12;38.40;30.70
21019;DHT22;10667;51.056;3.732;2023-06-14T12:29:41;38.50;29.90
21019;DHT22;10667;51.056;3.732;2023-06-14T12:32:11;38.60;30.90
21019;DHT22;10667;51.056;3.732;2023-06-14T12:34:37;38.70;30.60
21019;DHT22;10667;51.056;3.732;2023-06-14T12:37:03;38.80;30.20
21019;DHT22;10667;51.056;3.732;2023-06-14T12:39:30;38.30;29.70
21019;DHT22;10667;51.056;3.732;2023-06-14T12:41:57;38.70;30.90
21019;DHT22;10667;51.056;3.732;2023-06-14T12:44:23;38.90;30.00
21019;DHT22;10667;51.056;3.732;2023-06-14T12:46:48;38.60;28.80
21019;DHT22;10667;51.056;3.732;2023-06-14T12:49:16;38.40;30.00
21019;DHT22;10667;51.056;3.732;2023-06-14T12:51:42;38.90;29.50
21019;DHT22;10667;51.056;3.732;2023-06-14T12:54:08;39.10;29.70
21019;DHT22;10667;51.056;3.732;2023-06-14T12:56:34;39.30;29.10
21019;DHT22;10667;51.056;3.732;2023-06-14T12:59:00;38.80;29.40
21019;DHT22;10667;51.056;3.732;2023-06-14T13:01:25;39.10;29.70
21019;DHT22;10667;51.056;3.732;2023-06-14T13:03:51;39.30;29.40
21019;DHT22;10667;51.056;3.732;2023-06-14T13:06:21;39.40;29.20
21019;DHT22;10667;51.056;3.732;2023-06-14T13:08:48;39.40;28.80
21019;DHT22;10667;51.056;3.732;2023-06-14T13:11:14;39.50;29.40
21019;DHT22;10667;51.056;3.732;2023-06-14T13:13:40;39.70;29.10
21019;DHT22;10667;51.056;3.732;2023-06-14T13:16:06;39.90;28.60
21019;DHT22;10667;51.056;3.732;2023-06-14T13:18:31;39.80;28.90
21019;DHT22;10667;51.056;3.732;2023-06-14T13:20:57;40.00;28.00
21019;DHT22;10667;51.056;3.732;2023-06-14T13:23:23;39.30;28.30
21019;DHT22;10667;51.056;3.732;2023-06-14T13:25:49;39.50;28.70
21019;DHT22;10667;51.056;3.732;2023-06-14T13:28:16;39.50;28.30
21019;DHT22;10667;51.056;3.732;2023-06-14T13:30:42;39.00;28.50
21019;DHT22;10667;51.056;3.732;2023-06-14T13:33:08;39.20;28.40
21019;DHT22;10667;51.056;3.732;2023-06-14T13:35:34;39.10;28.10
21019;DHT22;10667;51.056;3.732;2023-06-14T13:38:00;39.20;28.00
21019;DHT22;10667;51.056;3.732;2023-06-14T13:40:25;39.30;28.30
21019;DHT22;10667;51.056;3.732;2023-06-14T13:42:51;39.70;28.60
21019;DHT22;10667;51.056;3.732;2023-06-14T13:45:17;39.90;27.50
21019;DHT22;10667;51.056;3.732;2023-06-14T13:47:43;40.00;28.20
21019;DHT22;10667;51.056;3.732;2023-06-14T13:50:09;40.20;27.30
21019;DHT22;10667;51.056;3.732;2023-06-14T13:52:34;40.50;27.20
21019;DHT22;10667;51.056;3.732;2023-06-14T13:55:00;40.50;27.50
21019;DHT22;10667;51.056;3.732;2023-06-14T13:57:26;40.20;26.80
21019;DHT22;10667;51.056;3.732;2023-06-14T13:59:52;39.70;27.40
21019;DHT22;10667;51.056;3.732;2023-06-14T14:02:21;39.90;27.30
21019;DHT22;10667;51.056;3.732;2023-06-14T14:04:46;39.50;27.00
21019;DHT22;10667;51.056;3.732;2023-06-14T14:07:19;39.80;27.40
21019;DHT22;10667;51.056;3.732;2023-06-14T14:09:45;39.80;27.60
21019;DHT22;10667;51.056;3.732;2023-06-14T14:12:11;39.90;27.70
21019;DHT22;10667;51.056;3.732;2023-06-14T14:14:37;40.10;28.30
21019;DHT22;10667;51.056;3.732;2023-06-14T14:17:03;40.20;27.50
21019;DHT22;10667;51.056;3.732;2023-06-14T14:19:29;40.30;27.70
21019;DHT22;10667;51.056;3.732;2023-06-14T14:21:55;40.50;27.70
21019;DHT22;10667;51.056;3.732;2023-06-14T14:24:21;40.50;27.50
21019;DHT22;10667;51.056;3.732;2023-06-14T14:26:46;40.00;28.10
21019;DHT22;10667;51.056;3.732;2023-06-14T14:29:16;40.20;27.30
21019;DHT22;10667;51.056;3.732;2023-06-14T14:31:42;40.20;27.50
21019;DHT22;10667;51.056;3.732;2023-06-14T14:34:08;40.40;27.80
21019;DHT22;10667;51.056;3.732;2023-06-14T14:36:33;40.20;27.00
21019;DHT22;10667;51.056;3.732;2023-06-14T14:39:01;39.70;27.50
21019;DHT22;10667;51.056;3.732;2023-06-14T14:41:27;40.00;27.20
21019;DHT22;10667;51.056;3.732;2023-06-14T14:43:53;40.20;27.10
21019;DHT22;10667;51.056;3.732;2023-06-14T14:46:19;40.50;27.60
21019;DHT22;10667;51.056;3.732;2023-06-14T14:48:44;40.60;27.00
21019;DHT22;10667;51.056;3.732;2023-06-14T14:51:10;40.70;26.40
21019;DHT22;10667;51.056;3.732;2023-06-14T14:53:35;40.40;27.30
21019;DHT22;10667;51.056;3.732;2023-06-14T14:56:01;40.40;27.20
21019;DHT22;10667;51.056;3.732;2023-06-14T14:58:27;39.80;26.40
21019;DHT22;10667;51.056;3.732;2023-06-14T15:00:52;39.30;27.30
21019;DHT22;10667;51.056;3.732;2023-06-14T15:03:18;38.80;27.50
21019;DHT22;10667;51.056;3.732;2023-06-14T15:05:44;38.80;27.70
21019;DHT22;10667;51.056;3.732;2023-06-14T15:08:09;39.40;27.40
21019;DHT22;10667;51.056;3.732;2023-06-14T15:10:41;39.40;27.50
21019;DHT22;10667;51.056;3.732;2023-06-14T15:13:07;39.40;26.80
21019;DHT22;10667;51.056;3.732;2023-06-14T15:15:34;39.10;26.00
21019;DHT22;10667;51.056;3.732;2023-06-14T15:18:00;39.20;27.10
21019;DHT22;10667;51.056;3.732;2023-06-14T15:20:26;39.30;26.70
21019;DHT22;10667;51.056;3.732;2023-06-14T15:22:52;39.60;26.60
21019;DHT22;10667;51.056;3.732;2023-06-14T15:25:18;39.70;25.70
21019;DHT22;10667;51.056;3.732;2023-06-14T15:27:45;39.80;26.30
21019;DHT22;10667;51.056;3.732;2023-06-14T15:30:11;40.00;26.60
21019;DHT22;10667;51.056;3.732;2023-06-14T15:32:36;40.10;26.30
21019;DHT22;10667;51.056;3.732;2023-06-14T15:35:02;40.30;26.60
21019;DHT22;10667;51.056;3.732;2023-06-14T15:37:28;40.30;25.70
21019;DHT22;10667;51.056;3.732;2023-06-14T15:39:54;40.20;24.60
21019;DHT22;10667;51.056;3.732;2023-06-14T15:42:19;40.20;25.70
21019;DHT22;10667;51.056;3.732;2023-06-14T15:44:45;40.30;26.20
21019;DHT22;10667;51.056;3.732;2023-06-14T15:47:13;40.10;25.60
21019;DHT22;10667;51.056;3.732;2023-06-14T15:49:38;40.20;25.50